createdAt,value
2024-03-13T00:01:13.635Z,27.10
2024-03-13T00:03:41.373Z,27.60
2024-03-13T00:06:09.402Z,29.50
2024-03-13T00:08:36.961Z,28.30
2024-03-13T00:11:04.636Z,29.80
2024-03-13T00:13:32.209Z,24.80
2024-03-13T00:16:00.217Z,28.10
2024-03-13T00:18:27.911Z,26.50
2024-03-13T00:20:55.492Z,27.90
2024-03-13T00:23:23.044Z,32.10
2024-03-13T00:25:50.618Z,30.20
2024-03-13T00:28:18.298Z,29.10
2024-03-13T00:30:46.061Z,33.50
2024-03-13T00:33:13.717Z,24.80
2024-03-13T00:35:41.659Z,29.80
2024-03-13T00:38:09.414Z,30.90
2024-03-13T00:40:37.042Z,31.70
2024-03-13T00:43:04.845Z,33.10
2024-03-13T00:45:32.399Z,33.50
2024-03-13T00:47:59.987Z,30.40
2024-03-13T00:50:27.624Z,33.10
2024-03-13T00:52:55.387Z,27.10
2024-03-13T00:55:23.195Z,27.50
2024-03-13T00:57:51.161Z,25.50
2024-03-13T01:00:18.676Z,28.40
2024-03-13T01:02:46.295Z,34.90
2024-03-13T01:05:14.019Z,32.20
2024-03-13T01:07:41.773Z,32.20
2024-03-13T01:10:09.522Z,31.20
2024-03-13T01:12:40.273Z,32.00
2024-03-13T01:15:07.816Z,34.90
2024-03-13T01:17:35.436Z,31.90
2024-03-13T01:20:03.158Z,30.50
2024-03-13T01:22:31.196Z,30.10
2024-03-13T01:24:58.897Z,34.50
2024-03-13T01:27:26.552Z,29.50
2024-03-13T01:29:54.205Z,30.70
2024-03-13T01:32:22.071Z,32.30
2024-03-13T01:34:49.624Z,31.80
2024-03-13T01:37:17.251Z,30.00
2024-03-13T01:39:45.002Z,28.60
2024-03-13T01:42:12.935Z,27.90
2024-03-13T01:44:40.679Z,32.70
2024-03-13T01:47:08.302Z,31.50
2024-03-13T01:49:36.122Z,32.20
2024-03-13T01:52:03.802Z,32.80
2024-03-13T01:54:31.437Z,32.90
2024-03-13T01:56:59.001Z,31.90
2024-03-13T01:59:26.646Z,30.80
2024-03-13T02:01:54.279Z,30.40
2024-03-13T02:04:22.341Z,29.60
2024-03-13T02:06:50.093Z,28.40
2024-03-13T02:09:17.710Z,31.50
2024-03-13T02:11:45.319Z,23.30
2024-03-13T02:14:12.929Z,30.60
2024-03-13T02:16:40.613Z,31.30
2024-03-13T02:19:08.171Z,29.60
2024-03-13T02:21:35.913Z,27.40
2024-03-13T02:24:03.382Z,26.70
2024-03-13T02:26:30.929Z,24.80
2024-03-13T02:28:58.483Z,30.60
2024-03-13T02:31:26.231Z,31.10
2024-03-13T02:33:53.976Z,31.80
2024-03-13T02:36:21.777Z,29.30
2024-03-13T02:38:49.469Z,32.80
2024-03-13T02:41:17.103Z,33.00
2024-03-13T02:43:44.660Z,32.40
2024-03-13T02:46:12.665Z,26.10
2024-03-13T02:48:40.195Z,30.30
2024-03-13T02:51:07.857Z,26.50
2024-03-13T02:53:35.425Z,30.50
2024-03-13T02:56:03.070Z,33.50
2024-03-13T02:58:30.815Z,33.20
2024-03-13T03:00:58.477Z,30.60
2024-03-13T03:03:26.166Z,32.40
2024-03-13T03:05:53.822Z,31.50
2024-03-13T03:08:21.803Z,29.90
2024-03-13T03:10:49.384Z,34.00
2024-03-13T03:13:16.968Z,33.20
2024-03-13T03:15:44.806Z,33.70
2024-03-13T03:18:12.557Z,27.50
2024-03-13T03:20:40.205Z,36.80
2024-03-13T03:23:07.865Z,34.40
2024-03-13T03:25:35.882Z,30.60
2024-03-13T03:28:03.630Z,31.60
2024-03-13T03:30:31.415Z,32.10
2024-03-13T03:32:59.295Z,29.40
2024-03-13T03:35:26.894Z,31.40
2024-03-13T03:37:54.452Z,34.50
2024-03-13T03:40:21.859Z,28.60
2024-03-13T03:42:49.484Z,34.50
2024-03-13T03:45:17.335Z,29.10
2024-03-13T03:47:46.288Z,35.70
2024-03-13T03:50:16.952Z,35.00
2024-03-13T03:52:44.514Z,34.80
2024-03-13T03:55:12.137Z,33.50
2024-03-13T03:57:39.940Z,33.50
2024-03-13T04:00:07.777Z,33.40
2024-03-13T04:02:35.480Z,32.80
2024-03-13T04:05:03.237Z,36.50
2024-03-13T04:07:30.795Z,30.70
2024-03-13T04:09:58.610Z,33.80
2024-03-13T04:12:26.527Z,33.90
2024-03-13T04:14:54.084Z,34.50
2024-03-13T04:17:21.650Z,29.30
2024-03-13T04:19:49.308Z,28.40
2024-03-13T04:22:16.898Z,33.50
2024-03-13T04:24:44.547Z,30.60
2024-03-13T04:27:12.291Z,34.80
2024-03-13T04:29:44.354Z,33.30
2024-03-13T04:32:16.420Z,25.90
2024-03-13T04:34:43.992Z,25.70
2024-03-13T04:37:11.559Z,31.40
2024-03-13T04:39:39.623Z,35.30
2024-03-13T04:42:07.272Z,30.20
2024-03-13T04:44:34.833Z,33.20
2024-03-13T04:47:02.492Z,31.40
2024-03-13T04:49:30.123Z,29.10
2024-03-13T04:51:57.877Z,34.30
2024-03-13T04:54:25.888Z,30.30
2024-03-13T04:56:53.545Z,32.10
2024-03-13T04:59:21.111Z,38.90
2024-03-13T05:01:48.791Z,42.50
2024-03-13T05:04:16.584Z,24.70
2024-03-13T05:06:44.306Z,33.70
2024-03-13T05:09:12.017Z,44.30
2024-03-13T05:11:39.692Z,49.90
2024-03-13T05:14:07.622Z,40.90
2024-03-13T05:16:35.252Z,29.20
2024-03-13T05:19:02.849Z,32.00
2024-03-13T05:21:30.476Z,33.20
2024-03-13T05:23:58.039Z,33.20
2024-03-13T05:26:25.599Z,34.40
2024-03-13T05:28:53.154Z,29.00
2024-03-13T05:31:20.739Z,32.70
2024-03-13T05:33:48.312Z,31.30
2024-03-13T05:36:16.345Z,32.20
2024-03-13T05:38:44.006Z,32.50
2024-03-13T05:41:11.672Z,31.10
2024-03-13T05:43:39.448Z,30.20
2024-03-13T05:46:07.241Z,30.60
2024-03-13T05:48:34.855Z,34.90
2024-03-13T05:51:02.406Z,28.70
2024-03-13T05:53:29.966Z,29.00
2024-03-13T05:55:57.750Z,30.60
2024-03-13T05:58:25.750Z,32.60
2024-03-13T06:00:53.549Z,34.00
2024-03-13T06:03:21.437Z,26.20
2024-03-13T06:05:49.100Z,30.00
2024-03-13T06:08:16.812Z,33.50
2024-03-13T06:10:44.689Z,32.20
2024-03-13T06:13:12.519Z,38.80
2024-03-13T06:15:40.255Z,42.10
2024-03-13T06:18:08.164Z,42.60
2024-03-13T06:20:35.804Z,36.00
2024-03-13T06:23:03.349Z,31.90
2024-03-13T06:25:31.038Z,30.10
2024-03-13T06:27:58.685Z,28.20
2024-03-13T06:30:26.136Z,25.40
2024-03-13T06:32:53.736Z,33.90
2024-03-13T06:35:21.462Z,29.70
2024-03-13T06:37:49.013Z,27.90
2024-03-13T06:40:17.073Z,32.80
2024-03-13T06:42:44.848Z,29.70
2024-03-13T06:45:18.785Z,32.40
2024-03-13T06:47:52.206Z,31.80
2024-03-13T06:50:19.709Z,32.40
2024-03-13T06:52:47.269Z,32.50
2024-03-13T06:55:15.011Z,31.40
2024-03-13T06:57:42.693Z,30.30
2024-03-13T07:00:12.604Z,28.10
2024-03-13T07:02:40.169Z,27.60
2024-03-13T07:05:08.148Z,29.00
2024-03-13T07:07:35.719Z,28.80
2024-03-13T07:10:03.573Z,28.60
2024-03-13T07:12:31.233Z,27.30
2024-03-13T07:14:58.888Z,24.60
2024-03-13T07:17:26.448Z,29.00
2024-03-13T07:19:54.105Z,32.50
2024-03-13T07:22:21.729Z,32.60
2024-03-13T07:24:49.481Z,38.00
2024-03-13T07:27:17.298Z,51.70
2024-03-13T07:29:44.851Z,45.70
2024-03-13T07:32:12.414Z,48.70
2024-03-13T07:34:40.004Z,37.70
2024-03-13T07:37:07.670Z,29.50
2024-03-13T07:39:35.406Z,27.40
2024-03-13T07:42:02.960Z,36.10
2024-03-13T07:44:30.934Z,35.00
2024-03-13T07:46:58.482Z,36.80
2024-03-13T07:49:26.083Z,33.50
2024-03-13T07:51:53.847Z,27.90
2024-03-13T07:54:21.572Z,29.90
2024-03-13T07:56:49.134Z,28.10
2024-03-13T07:59:16.816Z,27.50
2024-03-13T08:01:44.639Z,29.50
2024-03-13T08:04:12.428Z,26.90
2024-03-13T09:07:11.226Z,32.60
2024-03-13T09:09:38.875Z,28.40
2024-03-13T09:12:07.417Z,25.80
2024-03-13T09:14:35.060Z,27.20
2024-03-13T09:17:02.677Z,31.60
2024-03-13T09:19:30.250Z,26.00
2024-03-13T09:21:58.103Z,24.70
2024-03-13T09:24:26.018Z,25.30
2024-03-13T09:26:53.683Z,28.00
2024-03-13T09:29:24.075Z,26.10
2024-03-13T09:34:19.386Z,33.20
2024-03-13T09:36:47.147Z,31.00
2024-03-13T09:39:14.844Z,30.30
2024-03-13T09:41:42.823Z,26.90
2024-03-13T09:44:10.338Z,27.50
2024-03-13T09:46:37.995Z,29.30
2024-03-13T09:49:08.535Z,28.30
2024-03-13T09:51:36.196Z,28.00
2024-03-13T09:54:03.786Z,21.30
2024-03-13T09:56:31.597Z,26.60
2024-03-13T09:58:59.501Z,23.90
2024-03-13T10:01:27.143Z,24.20
2024-03-13T10:03:58.143Z,23.60
2024-03-13T10:06:26.309Z,23.60
2024-03-13T10:08:54.076Z,23.70
2024-03-13T10:11:21.715Z,24.50
2024-03-13T10:13:49.239Z,21.30
2024-03-13T10:16:16.912Z,21.90
2024-03-13T10:18:44.628Z,21.90
2024-03-13T10:21:12.491Z,22.60
2024-03-13T10:23:40.221Z,20.90
2024-03-13T10:26:07.759Z,18.40
2024-03-13T10:28:35.312Z,18.50
2024-03-13T10:31:02.895Z,20.20
2024-03-13T10:33:30.596Z,17.50
2024-03-13T10:35:58.318Z,20.50
2024-03-13T10:38:26.060Z,21.60
2024-03-13T10:40:53.839Z,21.00
2024-03-13T10:43:21.490Z,19.40
2024-03-13T10:45:49.360Z,18.90
2024-03-13T10:48:17.116Z,20.50
2024-03-13T10:50:44.940Z,19.50
2024-03-13T10:53:12.652Z,19.00
2024-03-13T10:55:40.305Z,21.50
2024-03-13T10:58:07.867Z,18.40
2024-03-13T11:00:35.527Z,23.80
2024-03-13T11:03:03.486Z,22.40
2024-03-13T11:05:31.167Z,36.60
2024-03-13T11:07:59.243Z,20.60
2024-03-13T11:10:26.735Z,20.50
2024-03-13T11:12:54.423Z,19.70
2024-03-13T11:15:22.319Z,21.90
2024-03-13T11:17:50.185Z,20.10
2024-03-13T11:20:17.878Z,17.30
2024-03-13T11:22:45.410Z,19.10
2024-03-13T11:25:13.067Z,21.40
2024-03-13T11:27:40.739Z,17.40
2024-03-13T11:30:09.217Z,15.90
2024-03-13T11:32:37.084Z,18.70
2024-03-13T11:35:04.846Z,19.50
2024-03-13T11:37:32.402Z,18.60
2024-03-13T11:39:59.961Z,18.10
2024-03-13T11:42:27.555Z,18.40
2024-03-13T11:44:57.085Z,15.50
2024-03-13T11:47:24.728Z,16.90
2024-03-13T11:49:52.450Z,17.00
2024-03-13T11:52:20.010Z,18.30
2024-03-13T11:54:47.677Z,17.10
2024-03-13T11:57:15.757Z,19.40
2024-03-13T11:59:43.519Z,17.20
2024-03-13T12:02:11.168Z,18.20
2024-03-13T12:04:38.926Z,17.40
2024-03-13T12:07:06.491Z,20.00
2024-03-13T12:09:34.167Z,19.10
2024-03-13T12:12:01.906Z,16.10
2024-03-13T12:14:30.604Z,17.10
2024-03-13T12:16:58.263Z,17.40
2024-03-13T12:19:25.838Z,17.50
2024-03-13T12:21:53.486Z,18.10
2024-03-13T12:24:21.107Z,18.90
2024-03-13T12:26:48.825Z,18.10
2024-03-13T12:29:16.587Z,18.30
2024-03-13T12:31:44.238Z,19.20
2024-03-13T12:34:11.803Z,16.50
2024-03-13T12:36:39.481Z,18.60
2024-03-13T12:39:07.186Z,18.70
2024-03-13T12:41:35.204Z,15.90
2024-03-13T12:44:02.856Z,16.60
2024-03-13T12:46:30.732Z,17.10
2024-03-13T12:48:58.452Z,16.60
2024-03-13T12:51:26.556Z,17.70
2024-03-13T12:53:54.228Z,17.10
2024-03-13T12:56:21.768Z,16.00
2024-03-13T12:58:49.431Z,16.10
2024-03-13T13:01:17.104Z,20.40
2024-03-13T13:03:44.661Z,16.50
2024-03-13T13:06:12.463Z,15.30
2024-03-13T13:08:40.059Z,14.80
2024-03-13T13:11:07.909Z,14.80
2024-03-13T13:13:36.070Z,15.00
2024-03-13T13:16:03.682Z,16.80
2024-03-13T13:18:31.281Z,17.30
2024-03-13T13:20:59.116Z,16.90
2024-03-13T13:23:26.664Z,15.50
2024-03-13T13:25:54.217Z,14.90
2024-03-13T13:28:21.788Z,14.50
2024-03-13T13:30:49.454Z,13.50
2024-03-13T13:33:17.546Z,13.60
2024-03-13T13:35:45.318Z,13.60
2024-03-13T13:38:13.133Z,12.10
2024-03-13T13:40:40.931Z,12.40
2024-03-13T13:43:08.576Z,12.70
2024-03-13T13:45:36.341Z,11.70
2024-03-13T13:48:04.081Z,11.40
2024-03-13T13:50:31.456Z,11.00
2024-03-13T13:52:59.113Z,16.80
2024-03-13T13:55:26.674Z,15.30
2024-03-13T13:57:54.716Z,18.50
2024-03-13T14:00:24.742Z,16.10
2024-03-13T14:02:53.911Z,15.10
2024-03-13T14:05:22.304Z,12.80
2024-03-13T14:07:50.112Z,11.70
2024-03-13T14:10:17.760Z,13.40
2024-03-13T14:12:45.443Z,13.40
2024-03-13T14:15:13.345Z,16.70
2024-03-13T14:17:40.970Z,15.20
2024-03-13T14:20:08.717Z,13.00
2024-03-13T14:22:36.391Z,12.30
2024-03-13T14:25:04.054Z,14.40
2024-03-13T14:27:31.602Z,14.90
2024-03-13T14:29:59.274Z,13.40
2024-03-13T14:32:26.897Z,13.40
2024-03-13T14:34:59.052Z,13.60
2024-03-13T14:37:27.376Z,18.40
2024-03-13T14:39:55.029Z,13.80
2024-03-13T14:42:28.624Z,14.00
2024-03-13T14:45:02.194Z,12.10
2024-03-13T14:47:30.187Z,17.20
2024-03-13T14:49:57.940Z,12.50
2024-03-13T14:52:25.609Z,12.90
2024-03-13T14:54:53.759Z,11.20
2024-03-13T14:57:22.176Z,11.40
2024-03-13T14:59:50.029Z,12.50
2024-03-13T15:02:17.895Z,11.20
2024-03-13T15:04:45.580Z,14.40
2024-03-13T15:07:13.232Z,12.80
2024-03-13T15:09:40.899Z,11.80
2024-03-13T15:12:09.277Z,14.10
2024-03-13T15:14:37.771Z,13.80
2024-03-13T15:17:05.419Z,17.90
2024-03-13T15:19:32.978Z,15.50
2024-03-13T15:22:00.744Z,18.00
2024-03-13T15:24:28.343Z,23.30
2024-03-13T15:26:55.994Z,13.60
2024-03-13T15:29:23.545Z,15.60
2024-03-13T15:31:51.200Z,17.60
2024-03-13T15:34:18.755Z,19.70
2024-03-13T15:36:46.401Z,18.60
2024-03-13T15:39:14.024Z,20.30
2024-03-13T15:41:43.985Z,19.20
2024-03-13T15:44:12.895Z,17.40
2024-03-13T15:46:40.535Z,15.70
2024-03-13T15:49:08.232Z,24.90
2024-03-13T15:51:35.959Z,22.60
2024-03-13T15:54:03.557Z,16.80
2024-03-13T15:56:31.284Z,14.60
2024-03-13T15:58:58.940Z,17.90
2024-03-13T16:01:27.147Z,14.70
2024-03-13T16:03:54.894Z,20.50
2024-03-13T16:06:22.670Z,24.00
2024-03-13T16:08:50.562Z,35.70
2024-03-13T16:11:18.216Z,54.70
2024-03-13T16:13:45.938Z,60.60
2024-03-13T16:16:13.606Z,109.50
2024-03-13T16:18:41.316Z,124.50
2024-03-13T16:21:09.088Z,113.20
2024-03-13T16:23:37.168Z,187.80
2024-03-13T16:26:05.084Z,185.70
2024-03-13T16:28:32.988Z,100.40
2024-03-13T16:31:00.695Z,83.60
2024-03-13T16:33:28.620Z,101.10
2024-03-13T16:35:56.389Z,77.90
2024-03-13T16:38:24.096Z,95.10
2024-03-13T16:40:51.654Z,251.00
2024-03-13T16:43:19.749Z,93.50
2024-03-13T16:45:47.663Z,122.10
2024-03-13T16:48:15.516Z,48.90
2024-03-13T16:50:43.155Z,101.50
2024-03-13T16:53:10.880Z,67.60
2024-03-13T16:55:38.545Z,37.00
2024-03-13T16:58:06.097Z,25.40
2024-03-13T17:00:33.743Z,24.00
2024-03-13T17:03:01.619Z,24.40
2024-03-13T17:05:29.400Z,24.00
2024-03-13T17:07:57.392Z,23.10
2024-03-13T17:10:24.921Z,21.90
2024-03-13T17:12:52.585Z,21.30
2024-03-13T17:15:20.669Z,20.50
2024-03-13T17:17:48.622Z,22.50
2024-03-13T17:20:16.396Z,25.50
2024-03-13T17:22:43.947Z,27.40
2024-03-13T17:25:11.610Z,32.50
2024-03-13T17:27:39.164Z,36.10
2024-03-13T17:30:07.205Z,39.80
2024-03-13T17:32:34.857Z,49.80
2024-03-13T17:35:02.910Z,49.80
2024-03-13T17:37:30.667Z,65.10
2024-03-13T17:39:58.398Z,87.20
2024-03-13T17:42:26.154Z,77.70
2024-03-13T17:44:53.933Z,49.80
2024-03-13T17:47:21.586Z,48.30
2024-03-13T17:49:49.230Z,50.30
2024-03-13T17:52:17.117Z,53.40
2024-03-13T17:54:44.790Z,59.40
2024-03-13T17:57:12.521Z,51.10
2024-03-13T17:59:40.288Z,48.10
2024-03-13T18:02:07.979Z,43.00
2024-03-13T18:04:35.530Z,39.00
2024-03-13T18:07:03.193Z,40.60
2024-03-13T18:09:30.879Z,40.50
2024-03-13T18:11:58.750Z,35.70
2024-03-13T18:14:26.375Z,41.00
2024-03-13T18:16:54.049Z,37.30
2024-03-13T18:19:21.623Z,40.60
2024-03-13T18:21:49.164Z,34.70
2024-03-13T18:24:16.767Z,42.50
2024-03-13T18:26:44.504Z,59.50
2024-03-13T18:29:12.259Z,62.50
2024-03-13T18:31:39.910Z,77.70
2024-03-13T18:34:07.641Z,40.90
2024-03-13T18:36:35.337Z,57.50
2024-03-13T18:39:04.917Z,41.00
2024-03-13T18:41:33.220Z,32.00
2024-03-13T18:44:00.893Z,46.90
2024-03-13T18:46:28.544Z,69.10
2024-03-13T18:48:56.146Z,78.40
2024-03-13T18:51:24.240Z,63.80
2024-03-13T18:53:52.169Z,49.10
2024-03-13T18:56:19.813Z,53.20
2024-03-13T18:58:47.368Z,53.00
2024-03-13T19:01:15.070Z,55.10
2024-03-13T19:03:42.785Z,80.70
2024-03-13T19:06:10.437Z,61.00
2024-03-13T19:08:38.108Z,71.20
2024-03-13T19:11:05.769Z,80.40
2024-03-13T19:13:33.838Z,79.90
2024-03-13T19:16:01.299Z,78.20
2024-03-13T19:18:29.015Z,111.60
2024-03-13T19:20:56.740Z,83.60
2024-03-13T19:23:24.388Z,94.80
2024-03-13T19:25:51.969Z,58.00
2024-03-13T19:28:19.545Z,52.50
2024-03-13T19:30:47.073Z,54.40
2024-03-13T19:33:15.092Z,66.10
2024-03-13T19:35:42.948Z,45.80
2024-03-13T19:38:10.663Z,52.60
2024-03-13T19:40:40.313Z,46.10
2024-03-13T19:43:08.656Z,83.70
2024-03-13T19:45:36.487Z,40.60
2024-03-13T19:48:04.268Z,39.60
2024-03-13T19:50:31.841Z,35.70
2024-03-13T19:52:59.412Z,38.30
2024-03-13T19:55:26.957Z,39.80
2024-03-13T19:57:54.920Z,32.20
2024-03-13T20:00:22.524Z,39.10
2024-03-13T20:02:50.287Z,42.50
2024-03-13T20:05:17.913Z,43.60
2024-03-13T20:07:45.572Z,41.70
2024-03-13T20:10:13.342Z,45.20
2024-03-13T20:12:41.308Z,47.90
2024-03-13T20:15:09.492Z,65.60
2024-03-13T20:17:37.262Z,73.30
2024-03-13T20:20:05.221Z,61.40
2024-03-13T20:22:32.878Z,51.20
2024-03-13T20:25:00.651Z,52.80
2024-03-13T20:27:28.487Z,57.30
2024-03-13T20:29:56.313Z,49.20
2024-03-13T20:32:23.931Z,44.20
2024-03-13T20:34:51.493Z,44.80
2024-03-13T20:37:19.056Z,34.90
2024-03-13T20:39:47.231Z,29.80
2024-03-13T20:42:14.799Z,27.30
2024-03-13T20:44:42.453Z,26.80
2024-03-13T20:47:10.023Z,35.90
2024-03-13T20:49:37.681Z,41.40
2024-03-13T20:52:05.330Z,44.70
2024-03-13T20:54:32.948Z,44.80
2024-03-13T20:57:00.620Z,44.60
2024-03-13T20:59:28.331Z,41.20
2024-03-13T21:01:55.976Z,40.90
2024-03-13T21:04:23.538Z,41.80
2024-03-13T21:06:51.199Z,52.00
2024-03-13T21:09:18.814Z,67.60
2024-03-13T21:11:46.611Z,64.20
2024-03-13T21:14:14.298Z,56.20
2024-03-13T21:16:42.051Z,53.50
2024-03-13T21:19:09.608Z,49.00
2024-03-13T21:21:37.272Z,50.60
2024-03-13T21:24:04.698Z,51.50
2024-03-13T21:26:32.397Z,47.10
2024-03-13T21:29:00.053Z,33.40
2024-03-13T21:31:27.614Z,29.50
2024-03-13T21:33:55.359Z,30.10
2024-03-13T21:36:23.171Z,34.10
2024-03-13T21:38:50.745Z,29.80
2024-03-13T21:41:18.767Z,42.60
2024-03-13T21:43:46.326Z,39.90
2024-03-13T21:46:13.997Z,51.70
2024-03-13T21:48:41.661Z,92.10
2024-03-13T21:51:09.428Z,98.10
2024-03-13T21:53:37.115Z,77.10
2024-03-13T21:56:04.642Z,74.00
2024-03-13T21:58:32.296Z,66.00
2024-03-13T22:00:59.872Z,108.30
2024-03-13T22:03:28.082Z,95.90
2024-03-13T22:05:55.732Z,112.20
2024-03-13T22:08:23.470Z,111.20
2024-03-13T22:10:51.014Z,117.00
2024-03-13T22:13:18.801Z,114.50
2024-03-13T22:15:46.545Z,115.00
2024-03-13T22:18:14.289Z,60.30
2024-03-13T22:20:42.009Z,50.80
2024-03-13T22:23:10.145Z,41.60
2024-03-13T22:25:37.756Z,39.90
2024-03-13T22:28:05.468Z,41.70
2024-03-13T22:30:32.837Z,37.10
2024-03-13T22:33:00.664Z,30.50
2024-03-13T22:35:28.456Z,32.60
2024-03-13T22:37:56.137Z,30.70
2024-03-13T22:40:23.669Z,30.50
2024-03-13T22:42:51.339Z,28.80
2024-03-13T22:45:19.004Z,28.30
2024-03-13T22:47:46.915Z,30.90
2024-03-13T22:50:14.655Z,31.00
2024-03-13T22:52:42.190Z,29.80
2024-03-13T22:55:09.749Z,28.00
2024-03-13T22:57:37.309Z,29.50
2024-03-13T23:00:04.993Z,28.80
2024-03-13T23:02:32.734Z,26.30
2024-03-13T23:05:00.402Z,24.50
2024-03-13T23:07:27.968Z,21.80
2024-03-13T23:09:56.137Z,20.70
2024-03-13T23:12:24.054Z,18.60
2024-03-13T23:14:51.774Z,22.30
2024-03-13T23:17:19.528Z,23.00
2024-03-13T23:19:47.107Z,21.50
2024-03-13T23:22:14.638Z,19.90
2024-03-13T23:24:42.196Z,21.70
2024-03-13T23:27:10.200Z,20.80
2024-03-13T23:29:37.732Z,18.60
2024-03-13T23:32:05.970Z,20.00
2024-03-13T23:34:33.879Z,22.60
2024-03-13T23:37:01.431Z,25.60
2024-03-13T23:39:29.151Z,28.60
2024-03-13T23:41:56.887Z,35.70
2024-03-13T23:44:24.517Z,51.70
2024-03-13T23:46:52.081Z,55.60
2024-03-13T23:49:20.049Z,36.90
2024-03-13T23:51:47.716Z,28.80
2024-03-13T23:54:15.306Z,24.90
2024-03-13T23:56:42.929Z,31.20
2024-03-13T23:59:10.794Z,39.50
